createdAt,value
2023-04-09T00:00:17.895Z,56.90
2023-04-09T00:02:45.270Z,56.60
2023-04-09T00:05:12.465Z,57.37
2023-04-09T00:07:39.784Z,58.13
2023-04-09T00:10:07.663Z,59.13
2023-04-09T00:12:34.812Z,61.73
2023-04-09T00:15:01.859Z,62.97
2023-04-09T00:17:28.870Z,61.20
2023-04-09T00:19:56.235Z,62.27
2023-04-09T00:22:23.358Z,61.97
2023-04-09T00:24:50.464Z,64.43
2023-04-09T00:27:17.567Z,63.47
2023-04-09T00:29:44.678Z,62.83
2023-04-09T00:32:11.759Z,61.53
2023-04-09T00:34:39.225Z,61.53
2023-04-09T00:37:06.541Z,62.90
2023-04-09T00:39:33.507Z,60.80
2023-04-09T00:42:04.831Z,61.13
2023-04-09T00:44:33.301Z,60.53
2023-04-09T00:47:01.275Z,60.33
2023-04-09T00:49:28.909Z,60.27
2023-04-09T00:51:56.137Z,61.87
2023-04-09T00:54:23.385Z,62.27
2023-04-09T00:56:51.028Z,64.67
2023-04-09T00:59:18.336Z,65.70
2023-04-09T01:01:45.468Z,65.50
2023-04-09T01:04:12.706Z,76.33
2023-04-09T01:06:44.523Z,76.23
2023-04-09T01:09:33.817Z,73.93
2023-04-09T01:12:14.772Z,71.40
2023-04-09T01:14:59.508Z,69.73
2023-04-09T01:17:41.674Z,70.00
2023-04-09T01:20:19.434Z,68.43
2023-04-09T01:23:06.360Z,65.00
2023-04-09T01:25:39.369Z,67.40
2023-04-09T01:28:39.504Z,67.33
2023-04-09T01:31:13.555Z,68.97
2023-04-09T01:33:41.816Z,67.87
2023-04-09T01:36:09.464Z,72.30
2023-04-09T01:38:39.726Z,70.87
2023-04-09T01:41:08.843Z,69.90
2023-04-09T01:43:37.437Z,66.17
2023-04-09T01:46:04.983Z,66.03
2023-04-09T01:48:32.994Z,66.00
2023-04-09T01:51:00.701Z,65.03
2023-04-09T01:53:31.308Z,65.53
2023-04-09T01:56:02.014Z,64.57
2023-04-09T01:58:29.160Z,62.90
2023-04-09T02:01:05.788Z,62.80
2023-04-09T02:03:46.644Z,62.87
2023-04-09T02:06:17.332Z,64.63
2023-04-09T02:08:47.862Z,64.57
2023-04-09T02:11:16.039Z,62.60
2023-04-09T02:13:44.296Z,63.17
2023-04-09T02:16:13.603Z,65.33
2023-04-09T02:18:40.956Z,63.80
2023-04-09T02:21:08.101Z,65.37
2023-04-09T02:23:35.137Z,64.00
2023-04-09T02:26:02.554Z,65.10
2023-04-09T02:28:29.568Z,62.73
2023-04-09T02:30:56.690Z,64.53
2023-04-09T02:33:23.875Z,64.53
2023-04-09T02:35:51.009Z,63.77
2023-04-09T02:38:19.825Z,63.27
2023-04-09T02:40:47.227Z,64.53
2023-04-09T02:43:14.415Z,64.27
2023-04-09T02:45:41.412Z,67.30
2023-04-09T02:48:08.673Z,66.73
2023-04-09T02:50:36.083Z,64.90
2023-04-09T02:53:03.917Z,64.83
2023-04-09T02:55:31.150Z,63.93
2023-04-09T02:57:58.256Z,65.43
2023-04-09T03:00:25.390Z,65.10
2023-04-09T03:02:53.080Z,64.80
2023-04-09T03:05:21.104Z,67.03
2023-04-09T03:07:48.178Z,64.97
2023-04-09T03:10:48.050Z,66.00
2023-04-09T03:13:15.492Z,66.77
2023-04-09T03:15:42.593Z,68.40
2023-04-09T03:18:10.044Z,66.73
2023-04-09T03:20:40.349Z,68.47
2023-04-09T03:23:11.236Z,69.73
2023-04-09T03:25:42.304Z,68.43
2023-04-09T03:28:15.518Z,68.37
2023-04-09T03:30:46.687Z,72.10
2023-04-09T03:33:15.043Z,72.77
2023-04-09T03:35:50.955Z,70.03
2023-04-09T03:38:24.556Z,70.17
2023-04-09T03:40:52.400Z,72.07
2023-04-09T03:43:19.579Z,72.47
2023-04-09T03:45:51.361Z,71.83
2023-04-09T03:48:23.152Z,72.73
2023-04-09T03:50:53.686Z,70.87
2023-04-09T03:53:29.566Z,74.07
2023-04-09T03:56:03.176Z,75.53
2023-04-09T03:58:31.333Z,76.43
2023-04-09T04:01:00.562Z,75.53
2023-04-09T04:03:39.043Z,76.53
2023-04-09T04:06:13.714Z,75.50
2023-04-09T04:08:48.143Z,75.03
2023-04-09T04:11:16.369Z,73.83
2023-04-09T04:13:43.630Z,73.07
2023-04-09T04:16:11.050Z,76.80
2023-04-09T04:18:40.320Z,86.90
2023-04-09T04:21:14.718Z,90.90
2023-04-09T04:23:45.891Z,88.87
2023-04-09T04:26:23.273Z,83.63
2023-04-09T04:28:51.533Z,80.07
2023-04-09T04:31:35.998Z,77.27
2023-04-09T04:34:03.368Z,79.57
2023-04-09T04:36:30.826Z,81.87
2023-04-09T04:38:57.894Z,77.73
2023-04-09T04:41:33.288Z,76.53
2023-04-09T04:44:26.464Z,77.10
2023-04-09T04:47:03.982Z,76.20
2023-04-09T04:49:31.793Z,73.77
2023-04-09T04:52:00.265Z,74.23
2023-04-09T04:54:27.845Z,74.53
2023-04-09T04:56:57.453Z,76.13
2023-04-09T04:59:50.977Z,73.77
2023-04-09T05:02:19.235Z,74.70
2023-04-09T05:04:55.391Z,76.43
2023-04-09T05:07:31.081Z,75.47
2023-04-09T05:09:58.781Z,74.27
2023-04-09T05:12:27.164Z,74.67
2023-04-09T05:14:54.157Z,75.63
2023-04-09T05:17:21.240Z,77.33
2023-04-09T05:19:52.941Z,76.67
2023-04-09T05:22:25.460Z,76.00
2023-04-09T05:24:52.708Z,77.00
2023-04-09T05:27:22.252Z,79.30
2023-04-09T05:29:51.243Z,79.20
2023-04-09T05:32:18.457Z,81.53
2023-04-09T05:34:45.529Z,78.13
2023-04-09T05:37:13.102Z,80.10
2023-04-09T05:39:41.900Z,76.43
2023-04-09T05:42:09.187Z,78.43
2023-04-09T05:44:59.567Z,75.40
2023-04-09T05:47:27.489Z,73.50
2023-04-09T05:50:06.066Z,69.90
2023-04-09T05:52:33.541Z,71.00
2023-04-09T05:55:01.069Z,72.00
2023-04-09T05:57:40.435Z,71.13
2023-04-09T06:00:08.462Z,66.80
2023-04-09T06:02:45.660Z,66.67
2023-04-09T06:05:13.062Z,66.77
2023-04-09T06:07:40.100Z,65.20
2023-04-09T06:10:08.020Z,63.63
2023-04-09T06:12:37.901Z,59.60
2023-04-09T06:15:05.987Z,59.70
2023-04-09T06:17:33.531Z,56.60
2023-04-09T06:20:00.591Z,55.97
2023-04-09T06:22:27.684Z,54.47
2023-04-09T06:24:54.685Z,54.70
2023-04-09T06:27:22.953Z,54.27
2023-04-09T06:29:50.073Z,52.70
2023-04-09T06:32:17.219Z,54.20
2023-04-09T06:34:44.317Z,53.55
2023-04-09T06:37:11.349Z,52.17
2023-04-09T06:39:40.358Z,52.38
2023-04-09T06:42:09.626Z,51.75
2023-04-09T06:44:50.647Z,51.97
2023-04-09T06:47:17.728Z,50.83
2023-04-09T06:49:44.829Z,49.22
2023-04-09T06:52:12.171Z,50.47
2023-04-09T06:54:39.187Z,50.22
2023-04-09T06:57:07.379Z,49.85
2023-04-09T06:59:34.465Z,54.72
2023-04-09T07:02:01.614Z,52.60
2023-04-09T07:04:28.749Z,52.58
2023-04-09T07:06:56.958Z,54.90
2023-04-09T07:09:24.304Z,55.00
2023-04-09T07:11:51.615Z,50.97
2023-04-09T07:14:18.637Z,50.38
2023-04-09T07:16:46.636Z,52.50
2023-04-09T07:19:13.710Z,53.00
2023-04-09T07:21:41.016Z,52.80
2023-04-09T07:24:08.246Z,49.25
2023-04-09T07:26:35.318Z,45.35
2023-04-09T07:29:03.854Z,45.70
2023-04-09T07:31:32.380Z,41.70
2023-04-09T07:34:01.046Z,43.40
2023-04-09T07:36:29.026Z,41.05
2023-04-09T07:38:56.203Z,41.15
2023-04-09T07:41:23.443Z,35.92
2023-04-09T07:43:50.378Z,33.10
2023-04-09T07:46:22.034Z,31.20
2023-04-09T07:48:50.398Z,27.67
2023-04-09T07:51:18.155Z,30.50
2023-04-09T07:53:45.251Z,32.35
2023-04-09T07:56:12.403Z,32.47
2023-04-09T07:58:39.513Z,31.30
2023-04-09T08:01:06.613Z,30.38
2023-04-09T08:03:33.918Z,31.20
2023-04-09T08:06:01.414Z,29.38
2023-04-09T08:08:28.548Z,29.02
2023-04-09T08:10:55.681Z,28.60
2023-04-09T08:13:25.573Z,30.15
2023-04-09T08:15:53.151Z,28.33
2023-04-09T08:18:20.230Z,27.65
2023-04-09T08:20:47.327Z,26.65
2023-04-09T08:23:14.438Z,26.70
2023-04-09T08:25:41.740Z,26.77
2023-04-09T08:28:09.116Z,28.02
2023-04-09T08:30:36.384Z,28.10
2023-04-09T08:33:03.661Z,28.83
2023-04-09T08:35:31.506Z,27.65
2023-04-09T08:37:59.988Z,28.67
2023-04-09T08:40:27.097Z,27.65
2023-04-09T08:42:56.996Z,27.35
2023-04-09T08:45:24.464Z,27.60
2023-04-09T08:47:52.237Z,26.92
2023-04-09T08:50:20.275Z,27.20
2023-04-09T08:52:49.137Z,24.70
2023-04-09T08:55:16.295Z,24.10
2023-04-09T08:57:43.734Z,25.38
2023-04-09T09:00:11.515Z,25.75
2023-04-09T09:02:39.947Z,24.45
2023-04-09T09:05:07.457Z,25.60
2023-04-09T09:07:34.667Z,26.45
2023-04-09T09:10:04.602Z,31.92
2023-04-09T09:12:42.029Z,25.77
2023-04-09T09:15:31.643Z,24.05
2023-04-09T09:18:00.834Z,23.95
2023-04-09T09:20:28.068Z,22.35
2023-04-09T09:22:56.723Z,21.67
2023-04-09T09:25:25.893Z,22.20
2023-04-09T09:27:54.307Z,24.08
2023-04-09T09:30:26.659Z,22.13
2023-04-09T09:32:55.324Z,22.23
2023-04-09T09:35:23.541Z,22.20
2023-04-09T09:38:06.568Z,22.58
2023-04-09T09:40:33.661Z,23.63
2023-04-09T09:43:00.820Z,22.27
2023-04-09T09:45:29.237Z,23.05
2023-04-09T09:47:57.175Z,25.77
2023-04-09T09:50:26.005Z,25.15
2023-04-09T09:53:01.459Z,30.00
2023-04-09T09:55:32.351Z,19.67
2023-04-09T09:58:06.536Z,17.00
2023-04-09T10:00:35.755Z,16.35
2023-04-09T10:03:13.469Z,21.50
2023-04-09T10:05:42.242Z,19.23
2023-04-09T10:08:11.342Z,17.77
2023-04-09T10:10:42.487Z,18.75
2023-04-09T10:13:37.674Z,19.40
2023-04-09T10:16:06.279Z,21.40
2023-04-09T10:18:34.734Z,21.60
2023-04-09T10:21:44.123Z,22.48
2023-04-09T10:24:11.931Z,21.27
2023-04-09T10:26:44.411Z,21.67
2023-04-09T10:29:14.712Z,20.42
2023-04-09T10:32:07.269Z,20.60
2023-04-09T10:34:40.684Z,20.58
2023-04-09T10:37:10.149Z,19.40
2023-04-09T10:39:43.950Z,19.67
2023-04-09T10:42:25.081Z,19.25
2023-04-09T10:45:07.503Z,19.10
2023-04-09T10:47:37.412Z,28.98
2023-04-09T10:50:27.005Z,22.40
2023-04-09T10:52:57.441Z,19.95
2023-04-09T10:55:48.144Z,21.48
2023-04-09T10:58:15.497Z,21.15
2023-04-09T11:00:47.445Z,20.42
2023-04-09T11:03:33.208Z,20.88
2023-04-09T11:06:09.463Z,20.55
2023-04-09T11:08:38.445Z,19.80
2023-04-09T11:11:05.995Z,19.95
2023-04-09T11:13:34.633Z,19.83
2023-04-09T11:16:06.859Z,20.02
2023-04-09T11:18:35.606Z,19.83
2023-04-09T11:21:04.410Z,19.90
2023-04-09T11:23:33.554Z,19.10
2023-04-09T11:26:01.958Z,19.95
2023-04-09T11:28:29.104Z,19.77
2023-04-09T11:30:56.153Z,20.90
2023-04-09T11:33:23.232Z,17.77
2023-04-09T11:35:51.542Z,18.30
2023-04-09T11:38:18.679Z,18.13
2023-04-09T11:40:48.850Z,18.38
2023-04-09T11:43:16.949Z,30.23
2023-04-09T11:45:45.016Z,20.73
2023-04-09T11:48:13.097Z,18.42
2023-04-09T11:50:40.741Z,18.20
2023-04-09T11:53:21.231Z,18.60
2023-04-09T11:55:51.510Z,18.00
2023-04-09T11:58:19.143Z,17.80
2023-04-09T12:00:46.555Z,18.95
2023-04-09T12:03:16.190Z,17.55
2023-04-09T12:05:51.208Z,17.85
2023-04-09T12:08:24.295Z,17.85
2023-04-09T12:10:54.699Z,17.02
2023-04-09T12:13:22.341Z,15.48
2023-04-09T12:15:50.198Z,15.68
2023-04-09T12:18:17.535Z,15.45
2023-04-09T12:20:47.496Z,16.08
2023-04-09T12:23:14.765Z,16.52
2023-04-09T12:25:45.638Z,16.27
2023-04-09T12:28:15.852Z,16.48
2023-04-09T12:30:43.339Z,16.45
2023-04-09T12:33:11.503Z,15.98
2023-04-09T12:35:39.031Z,16.50
2023-04-09T12:38:06.316Z,18.05
2023-04-09T12:40:34.183Z,15.75
2023-04-09T12:43:01.618Z,17.08
2023-04-09T12:45:33.753Z,17.35
2023-04-09T12:48:02.332Z,16.63
2023-04-09T12:50:29.507Z,16.77
2023-04-09T12:52:56.745Z,15.55
2023-04-09T12:55:23.794Z,16.35
2023-04-09T12:57:51.967Z,15.65
2023-04-09T13:00:19.246Z,15.55
2023-04-09T13:02:46.626Z,15.90
2023-04-09T13:05:13.962Z,16.65
2023-04-09T13:07:42.981Z,16.50
2023-04-09T13:10:10.822Z,18.30
2023-04-09T13:12:38.348Z,16.63
2023-04-09T13:15:06.224Z,15.63
2023-04-09T13:17:33.555Z,16.98
2023-04-09T13:20:01.410Z,16.55
2023-04-09T13:22:28.684Z,16.30
2023-04-09T13:24:55.792Z,17.30
2023-04-09T13:27:22.834Z,16.02
2023-04-09T13:29:49.828Z,16.10
2023-04-09T13:32:18.392Z,16.85
2023-04-09T13:34:45.436Z,16.15
2023-04-09T13:37:12.733Z,17.30
2023-04-09T13:39:39.750Z,16.95
2023-04-09T13:42:13.752Z,16.90
2023-04-09T13:44:44.762Z,17.45
2023-04-09T13:47:13.461Z,16.92
2023-04-09T13:49:41.432Z,15.32
2023-04-09T13:52:08.955Z,15.02
2023-04-09T13:54:36.585Z,14.63
2023-04-09T13:57:04.293Z,14.00
2023-04-09T13:59:31.503Z,14.57
2023-04-09T14:01:58.862Z,15.13
2023-04-09T14:04:26.235Z,15.90
2023-04-09T14:06:53.381Z,15.57
2023-04-09T14:09:20.489Z,15.48
2023-04-09T14:11:47.627Z,15.55
2023-04-09T14:14:14.813Z,15.10
2023-04-09T14:16:41.820Z,15.48
2023-04-09T14:19:10.189Z,15.13
2023-04-09T14:21:37.317Z,15.23
2023-04-09T14:24:04.520Z,15.05
2023-04-09T14:26:31.653Z,15.10
2023-04-09T14:28:58.929Z,15.18
2023-04-09T14:31:26.305Z,15.20
2023-04-09T14:33:53.641Z,15.27
2023-04-09T14:36:21.465Z,14.82
2023-04-09T14:38:49.250Z,14.98
2023-04-09T14:41:16.968Z,15.10
2023-04-09T14:43:44.080Z,13.93
2023-04-09T14:46:14.226Z,14.27
2023-04-09T14:48:41.436Z,14.70
2023-04-09T14:51:11.996Z,16.00
2023-04-09T14:53:39.500Z,14.90
2023-04-09T14:56:06.925Z,14.50
2023-04-09T14:58:34.214Z,14.00
2023-04-09T15:01:01.346Z,14.45
2023-04-09T15:03:28.939Z,15.07
2023-04-09T15:05:56.989Z,14.40
2023-04-09T15:08:24.037Z,14.88
2023-04-09T15:10:51.394Z,14.55
2023-04-09T15:13:18.433Z,13.70
2023-04-09T15:15:45.617Z,14.30
2023-04-09T15:18:12.848Z,45.90
2023-04-09T15:20:40.548Z,16.48
2023-04-09T15:23:07.623Z,14.98
2023-04-09T15:25:34.858Z,14.88
2023-04-09T15:28:02.670Z,15.55
2023-04-09T15:30:29.847Z,15.45
2023-04-09T15:32:57.160Z,14.70
2023-04-09T15:35:25.312Z,14.82
2023-04-09T15:37:52.830Z,14.38
2023-04-09T15:40:20.517Z,15.35
2023-04-09T15:42:47.557Z,15.43
2023-04-09T15:45:17.878Z,15.48
2023-04-09T15:47:46.169Z,14.88
2023-04-09T15:50:13.926Z,15.45
2023-04-09T15:52:41.288Z,14.93
2023-04-09T15:55:09.173Z,15.80
2023-04-09T15:57:36.646Z,15.57
2023-04-09T16:00:04.066Z,15.40
2023-04-09T16:02:31.664Z,15.20
2023-04-09T16:04:58.745Z,15.70
2023-04-09T16:07:25.834Z,15.82
2023-04-09T16:09:53.067Z,15.90
2023-04-09T16:12:20.122Z,16.40
2023-04-09T16:14:47.084Z,15.50
2023-04-09T16:17:14.260Z,15.32
2023-04-09T16:19:42.926Z,15.73
2023-04-09T16:22:10.419Z,50.38
2023-04-09T16:24:37.539Z,24.35
2023-04-09T16:27:04.701Z,18.80
2023-04-09T16:29:31.851Z,16.45
2023-04-09T16:31:58.968Z,16.55
2023-04-09T16:34:26.266Z,16.95
2023-04-09T16:36:53.420Z,17.15
2023-04-09T16:39:20.500Z,16.38
2023-04-09T16:41:47.570Z,17.17
2023-04-09T16:44:14.675Z,17.38
2023-04-09T16:46:42.951Z,16.92
2023-04-09T16:49:10.349Z,16.88
2023-04-09T16:51:38.438Z,18.10
2023-04-09T16:54:05.621Z,18.20
2023-04-09T16:56:32.959Z,18.58
2023-04-09T16:59:00.344Z,19.48
2023-04-09T17:01:27.977Z,18.23
2023-04-09T17:03:56.495Z,19.23
2023-04-09T17:06:23.618Z,20.33
2023-04-09T17:08:51.033Z,19.80
2023-04-09T17:11:18.756Z,20.17
2023-04-09T17:13:45.840Z,19.92
2023-04-09T17:16:14.349Z,19.45
2023-04-09T17:18:41.558Z,19.73
2023-04-09T17:21:08.602Z,20.05
2023-04-09T17:23:37.149Z,20.08
2023-04-09T17:26:06.883Z,21.70
2023-04-09T17:28:34.182Z,23.27
2023-04-09T17:31:01.714Z,22.60
2023-04-09T17:33:28.877Z,21.30
2023-04-09T17:35:57.749Z,21.58
2023-04-09T17:38:27.001Z,21.10
2023-04-09T17:40:54.362Z,20.67
2023-04-09T17:43:21.433Z,20.63
2023-04-09T17:45:49.315Z,20.83
2023-04-09T17:48:16.672Z,20.88
2023-04-09T17:50:43.860Z,21.45
2023-04-09T17:53:11.642Z,20.48
2023-04-09T17:55:38.864Z,20.73
2023-04-09T17:58:05.869Z,21.20
2023-04-09T18:00:34.406Z,21.63
2023-04-09T18:03:01.924Z,20.52
2023-04-09T18:05:29.704Z,21.75
2023-04-09T18:07:57.326Z,19.98
2023-04-09T18:10:24.474Z,20.85
2023-04-09T18:12:52.003Z,20.70
2023-04-09T18:15:19.376Z,20.45
2023-04-09T18:17:46.547Z,20.17
2023-04-09T18:20:15.421Z,20.10
2023-04-09T18:22:43.241Z,45.10
2023-04-09T18:25:10.584Z,33.78
2023-04-09T18:27:37.777Z,30.42
2023-04-09T18:30:05.425Z,22.38
2023-04-09T18:32:32.669Z,21.00
2023-04-09T18:34:59.725Z,21.25
2023-04-09T18:37:27.186Z,21.77
2023-04-09T18:39:54.356Z,21.90
2023-04-09T18:42:21.458Z,20.95
2023-04-09T18:44:48.860Z,20.55
2023-04-09T18:47:16.004Z,20.88
2023-04-09T18:49:42.967Z,20.95
2023-04-09T18:52:10.491Z,20.98
2023-04-09T18:54:38.913Z,21.08
2023-04-09T18:57:06.183Z,21.10
2023-04-09T18:59:35.022Z,21.25
2023-04-09T19:02:06.047Z,20.85
2023-04-09T19:04:40.167Z,21.52
2023-04-09T19:07:07.716Z,22.00
2023-04-09T19:09:34.948Z,21.98
2023-04-09T19:12:02.238Z,22.75
2023-04-09T19:14:29.556Z,21.80
2023-04-09T19:16:57.222Z,22.05
2023-04-09T19:19:24.356Z,21.38
2023-04-09T19:21:52.020Z,21.45
2023-04-09T19:24:19.110Z,21.60
2023-04-09T19:26:46.163Z,22.73
2023-04-09T19:29:13.158Z,23.10
2023-04-09T19:31:41.564Z,24.15
2023-04-09T19:34:10.785Z,24.17
2023-04-09T19:36:38.030Z,23.52
2023-04-09T19:39:05.969Z,24.33
2023-04-09T19:41:33.203Z,23.70
2023-04-09T19:44:01.645Z,24.08
2023-04-09T19:46:28.621Z,22.42
2023-04-09T19:48:56.698Z,22.55
2023-04-09T19:51:23.704Z,22.48
2023-04-09T19:53:50.751Z,22.13
2023-04-09T19:56:18.317Z,22.65
2023-04-09T19:58:45.642Z,21.08
2023-04-09T20:01:12.732Z,22.00
2023-04-09T20:03:39.874Z,21.33
2023-04-09T20:06:11.021Z,21.45
2023-04-09T20:08:38.317Z,21.70
2023-04-09T20:11:06.990Z,22.38
2023-04-09T20:13:34.243Z,21.70
2023-04-09T20:16:01.764Z,22.15
2023-04-09T20:18:28.982Z,24.40
2023-04-09T20:20:56.068Z,24.60
2023-04-09T20:23:23.192Z,26.65
2023-04-09T20:25:57.040Z,26.00
2023-04-09T20:28:24.196Z,27.17
2023-04-09T20:30:51.201Z,29.33
2023-04-09T20:33:18.591Z,27.15
2023-04-09T20:35:45.810Z,28.17
2023-04-09T20:38:12.896Z,28.13
2023-04-09T20:40:40.018Z,27.55
2023-04-09T20:43:07.075Z,26.42
2023-04-09T20:45:34.307Z,27.55
2023-04-09T20:48:01.677Z,27.13
2023-04-09T20:50:29.369Z,27.40
2023-04-09T20:52:58.597Z,27.38
2023-04-09T20:55:26.377Z,26.73
2023-04-09T20:57:56.472Z,27.70
2023-04-09T21:00:23.865Z,27.60
2023-04-09T21:02:51.553Z,27.77
2023-04-09T21:05:23.990Z,28.98
2023-04-09T21:07:52.987Z,28.33
2023-04-09T21:10:20.506Z,29.00
2023-04-09T21:12:50.410Z,29.70
2023-04-09T21:15:17.692Z,29.58
2023-04-09T21:17:44.788Z,28.77
2023-04-09T21:20:12.460Z,28.52
2023-04-09T21:22:39.594Z,28.15
2023-04-09T21:25:07.070Z,30.05
2023-04-09T21:27:34.176Z,30.63
2023-04-09T21:30:01.686Z,30.77
2023-04-09T21:32:28.866Z,30.67
2023-04-09T21:34:56.101Z,32.55
2023-04-09T21:37:24.474Z,32.28
2023-04-09T21:39:51.589Z,35.65
2023-04-09T21:42:18.587Z,36.17
2023-04-09T21:44:45.720Z,37.03
2023-04-09T21:47:13.193Z,39.83
2023-04-09T21:49:40.742Z,40.40
2023-04-09T21:52:14.451Z,40.78
2023-04-09T21:54:43.530Z,40.95
2023-04-09T21:57:11.429Z,43.70
2023-04-09T21:59:38.689Z,44.83
2023-04-09T22:02:06.091Z,45.55
2023-04-09T22:04:37.230Z,45.95
2023-04-09T22:07:04.742Z,45.65
2023-04-09T22:09:32.078Z,46.05
2023-04-09T22:11:59.752Z,46.22
2023-04-09T22:14:29.550Z,46.08
2023-04-09T22:16:58.144Z,47.00
2023-04-09T22:19:26.266Z,47.83
2023-04-09T22:22:00.380Z,48.63
2023-04-09T22:24:31.181Z,47.22
2023-04-09T22:26:59.162Z,46.58
2023-04-09T22:29:27.006Z,50.67
2023-04-09T22:31:58.099Z,50.30
2023-04-09T22:34:25.496Z,50.75
2023-04-09T22:36:52.546Z,50.15
2023-04-09T22:39:19.536Z,49.55
2023-04-09T22:41:47.029Z,50.10
2023-04-09T22:44:13.987Z,50.92
2023-04-09T22:46:41.596Z,53.00
2023-04-09T22:49:09.131Z,52.08
2023-04-09T22:51:36.552Z,52.45
2023-04-09T22:54:03.758Z,51.95
2023-04-09T22:56:33.712Z,51.78
2023-04-09T22:59:00.965Z,52.38
2023-04-09T23:01:28.226Z,51.42
2023-04-09T23:03:56.029Z,51.20
2023-04-09T23:06:25.121Z,51.03
2023-04-09T23:08:52.272Z,51.70
2023-04-09T23:11:19.697Z,51.35
2023-04-09T23:13:46.739Z,49.33
2023-04-09T23:16:14.050Z,53.10
2023-04-09T23:18:41.268Z,51.60
2023-04-09T23:21:09.635Z,58.55
2023-04-09T23:23:38.247Z,65.53
2023-04-09T23:26:06.105Z,51.97
2023-04-09T23:28:33.372Z,51.03
2023-04-09T23:31:00.657Z,51.25
2023-04-09T23:33:27.894Z,51.63
2023-04-09T23:35:55.282Z,52.15
2023-04-09T23:38:22.549Z,51.83
2023-04-09T23:40:49.935Z,53.83
2023-04-09T23:43:17.304Z,52.08
2023-04-09T23:45:44.734Z,52.73
2023-04-09T23:48:12.607Z,54.23
2023-04-09T23:50:41.024Z,53.60
2023-04-09T23:53:08.901Z,54.40
2023-04-09T23:55:41.103Z,52.50
2023-04-09T23:58:08.664Z,69.30
